createdAt,value
2019-05-20T00:01:03.551Z,2.67
2019-05-20T00:03:32.552Z,2.27
2019-05-20T00:06:01.534Z,1.93
2019-05-20T00:08:30.406Z,3.30
2019-05-20T00:10:59.370Z,2.50
2019-05-20T00:13:28.417Z,1.93
2019-05-20T00:15:57.269Z,5.17
2019-05-20T00:18:26.331Z,3.30
2019-05-20T00:20:55.262Z,2.20
2019-05-20T00:23:24.213Z,1.90
2019-05-20T00:25:53.095Z,3.10
2019-05-20T00:28:22.066Z,1.97
2019-05-20T00:30:51.093Z,2.60
2019-05-20T00:33:20.052Z,2.33
2019-05-20T00:35:49.005Z,2.63
2019-05-20T00:38:17.895Z,2.03
2019-05-20T00:40:46.726Z,2.17
2019-05-20T00:43:15.598Z,2.40
2019-05-20T00:45:44.621Z,3.23
2019-05-20T00:48:13.487Z,4.93
2019-05-20T00:50:42.417Z,2.50
2019-05-20T00:53:11.410Z,3.40
2019-05-20T00:55:40.514Z,3.20
2019-05-20T00:58:09.506Z,3.07
2019-05-20T01:00:39.099Z,2.47
2019-05-20T01:03:08.060Z,2.53
2019-05-20T01:05:37.063Z,4.78
2019-05-20T01:08:06.995Z,4.45
2019-05-20T01:10:36.063Z,2.97
2019-05-20T01:13:05.010Z,5.73
2019-05-20T01:15:33.988Z,2.73
2019-05-20T01:18:03.011Z,4.60
2019-05-20T01:20:31.921Z,3.23
2019-05-20T01:23:00.802Z,3.00
2019-05-20T01:25:29.762Z,3.80
2019-05-20T01:27:58.729Z,3.00
2019-05-20T01:30:27.694Z,3.57
2019-05-20T01:32:56.657Z,5.40
2019-05-20T01:35:25.694Z,4.13
2019-05-20T01:37:57.444Z,3.70
2019-05-20T01:40:30.650Z,4.20
2019-05-20T01:43:02.790Z,4.57
2019-05-20T01:45:34.386Z,7.00
2019-05-20T01:48:07.087Z,4.23
2019-05-20T01:50:36.091Z,4.27
2019-05-20T01:53:04.901Z,4.47
2019-05-20T01:55:33.738Z,4.40
2019-05-20T01:58:02.764Z,6.50
2019-05-20T02:00:31.691Z,4.77
2019-05-20T02:03:00.574Z,5.87
2019-05-20T02:05:29.576Z,4.77
2019-05-20T02:07:58.849Z,9.63
2019-05-20T02:10:27.705Z,11.07
2019-05-20T02:12:56.711Z,5.33
2019-05-20T02:15:37.726Z,4.57
2019-05-20T02:18:06.619Z,5.33
2019-05-20T02:20:35.635Z,5.53
2019-05-20T02:23:14.893Z,3.93
2019-05-20T02:25:47.829Z,4.50
2019-05-20T02:28:17.208Z,4.10
2019-05-20T02:30:46.058Z,4.93
2019-05-20T02:33:15.014Z,5.37
2019-05-20T02:35:43.933Z,5.40
2019-05-20T02:38:12.821Z,4.77
2019-05-20T02:40:41.807Z,5.07
2019-05-20T02:43:10.694Z,8.53
2019-05-20T02:45:39.631Z,5.07
2019-05-20T02:48:08.611Z,6.40
2019-05-20T02:50:37.618Z,6.77
2019-05-20T02:53:06.578Z,5.43
2019-05-20T02:55:35.480Z,7.67
2019-05-20T02:58:04.435Z,8.00
2019-05-20T03:00:33.393Z,6.70
2019-05-20T03:03:02.365Z,9.77
2019-05-20T03:05:31.176Z,8.73
2019-05-20T03:08:00.174Z,13.93
2019-05-20T03:10:29.127Z,15.27
2019-05-20T03:12:58.067Z,12.43
2019-05-20T03:15:27.043Z,13.10
2019-05-20T03:17:55.986Z,12.90
2019-05-20T03:20:25.036Z,13.03
2019-05-20T03:22:55.472Z,16.07
2019-05-20T03:25:24.445Z,17.00
2019-05-20T03:27:53.387Z,16.33
2019-05-20T03:30:22.472Z,16.87
2019-05-20T03:32:51.473Z,21.23
2019-05-20T03:35:20.448Z,19.03
2019-05-20T03:37:49.432Z,15.97
2019-05-20T03:40:18.466Z,18.07
2019-05-20T03:42:47.516Z,17.30
2019-05-20T03:45:16.583Z,18.07
2019-05-20T03:47:45.481Z,21.77
2019-05-20T03:50:14.775Z,19.27
2019-05-20T03:52:43.598Z,19.10
2019-05-20T03:55:12.615Z,18.63
2019-05-20T03:57:41.628Z,20.60
2019-05-20T04:00:11.765Z,18.00
2019-05-20T04:02:40.704Z,17.53
2019-05-20T04:05:09.721Z,18.83
2019-05-20T04:07:38.608Z,20.73
2019-05-20T04:10:07.868Z,17.07
2019-05-20T04:12:36.863Z,19.60
2019-05-20T04:15:06.041Z,20.30
2019-05-20T04:17:35.025Z,21.23
2019-05-20T04:20:04.141Z,23.43
2019-05-20T04:22:32.951Z,19.60
2019-05-20T04:25:02.048Z,19.53
2019-05-20T04:27:31.044Z,25.27
2019-05-20T04:30:00.048Z,26.40
2019-05-20T04:32:29.237Z,24.27
2019-05-20T04:35:18.322Z,19.97
2019-05-20T04:37:31.176Z,26.70
2019-05-20T04:40:00.181Z,21.77
2019-05-20T04:42:29.373Z,20.12
2019-05-20T04:44:58.386Z,19.87
2019-05-20T04:47:27.300Z,20.27
2019-05-20T04:49:56.297Z,22.17
2019-05-20T04:52:25.363Z,22.20
2019-05-20T04:54:54.222Z,26.00
2019-05-20T04:57:23.192Z,23.70
2019-05-20T04:59:52.166Z,26.80
2019-05-20T05:02:21.063Z,24.70
2019-05-20T05:04:50.142Z,23.20
2019-05-20T05:07:19.135Z,24.47
2019-05-20T05:09:48.128Z,26.00
2019-05-20T05:12:17.159Z,27.00
2019-05-20T05:14:46.114Z,26.83
2019-05-20T05:17:15.321Z,24.70
2019-05-20T05:19:44.302Z,27.60
2019-05-20T05:22:13.692Z,33.30
2019-05-20T05:24:42.890Z,32.07
2019-05-20T05:27:11.884Z,29.83
2019-05-20T05:29:40.845Z,38.53
2019-05-20T05:32:09.854Z,33.80
2019-05-20T05:34:39.233Z,33.87
2019-05-20T05:37:08.246Z,29.70
2019-05-20T05:39:37.304Z,33.40
2019-05-20T05:42:06.376Z,35.30
2019-05-20T05:44:35.383Z,32.13
2019-05-20T05:47:04.343Z,34.63
2019-05-20T05:49:33.189Z,40.67
2019-05-20T05:52:02.161Z,42.90
2019-05-20T05:54:31.124Z,45.03
2019-05-20T05:56:59.974Z,42.53
2019-05-20T05:59:28.987Z,37.50
2019-05-20T06:01:57.920Z,43.00
2019-05-20T06:04:26.894Z,47.57
2019-05-20T06:06:55.893Z,37.53
2019-05-20T06:09:24.700Z,44.53
2019-05-20T06:11:53.610Z,48.33
2019-05-20T06:14:22.450Z,50.13
2019-05-20T06:16:51.411Z,47.13
2019-05-20T06:19:23.185Z,49.77
2019-05-20T06:21:52.209Z,50.03
2019-05-20T06:24:21.189Z,48.20
2019-05-20T06:26:50.196Z,45.67
2019-05-20T06:29:20.668Z,49.27
2019-05-20T06:31:49.912Z,51.17
2019-05-20T06:34:19.060Z,53.93
2019-05-20T06:36:50.838Z,52.80
2019-05-20T06:39:19.789Z,45.67
2019-05-20T06:41:48.662Z,49.83
2019-05-20T06:44:17.668Z,48.87
2019-05-20T06:46:46.572Z,50.23
2019-05-20T06:49:15.427Z,47.43
2019-05-20T06:51:44.402Z,55.17
2019-05-20T06:54:13.320Z,52.40
2019-05-20T06:56:42.408Z,52.67
2019-05-20T06:59:11.612Z,54.20
2019-05-20T07:01:40.634Z,49.27
2019-05-20T07:04:09.591Z,49.50
2019-05-20T07:06:46.818Z,55.33
2019-05-20T07:09:09.285Z,47.33
2019-05-20T07:11:38.457Z,46.90
2019-05-20T07:14:07.566Z,54.00
2019-05-20T07:16:36.608Z,48.13
2019-05-20T07:19:05.788Z,44.27
2019-05-20T07:21:34.642Z,46.13
2019-05-20T07:24:04.080Z,49.43
2019-05-20T07:26:33.361Z,46.47
2019-05-20T07:29:02.353Z,55.87
2019-05-20T07:31:31.338Z,51.77
2019-05-20T07:34:00.304Z,50.77
2019-05-20T07:36:29.190Z,45.97
2019-05-20T07:38:58.137Z,54.70
2019-05-20T07:41:27.079Z,45.63
2019-05-20T07:43:56.064Z,46.67
2019-05-20T07:46:25.604Z,49.00
2019-05-20T07:48:55.082Z,51.77
2019-05-20T07:51:24.618Z,39.50
2019-05-20T07:53:53.692Z,40.37
2019-05-20T07:56:26.091Z,36.17
2019-05-20T07:58:58.109Z,40.73
2019-05-20T08:01:27.600Z,38.30
2019-05-20T08:03:56.621Z,36.60
2019-05-20T08:06:25.641Z,36.13
2019-05-20T08:08:54.674Z,30.90
2019-05-20T08:11:23.596Z,32.43
2019-05-20T08:13:56.720Z,24.47
2019-05-20T08:16:25.828Z,35.57
2019-05-20T08:18:54.919Z,26.17
2019-05-20T08:21:23.811Z,27.27
2019-05-20T08:23:52.864Z,27.67
2019-05-20T08:26:21.910Z,25.13
2019-05-20T08:28:50.954Z,26.30
2019-05-20T08:31:19.929Z,29.80
2019-05-20T08:33:48.747Z,27.10
2019-05-20T08:36:17.694Z,27.93
2019-05-20T08:38:46.481Z,27.60
2019-05-20T08:41:15.784Z,26.20
2019-05-20T08:43:49.722Z,24.60
2019-05-20T08:46:18.888Z,22.30
2019-05-20T08:48:47.864Z,22.37
2019-05-20T08:51:16.797Z,21.77
2019-05-20T08:53:45.828Z,21.40
2019-05-20T08:56:14.811Z,22.10
2019-05-20T08:58:43.603Z,20.70
2019-05-20T09:01:12.669Z,21.77
2019-05-20T09:03:41.479Z,20.97
2019-05-20T09:06:10.609Z,21.83
2019-05-20T09:08:39.662Z,19.93
2019-05-20T09:11:08.653Z,24.30
2019-05-20T09:13:37.637Z,21.90
2019-05-20T09:16:06.599Z,21.57
2019-05-20T09:18:35.604Z,26.40
2019-05-20T09:21:04.575Z,26.03
2019-05-20T09:23:33.549Z,23.07
2019-05-20T09:26:02.405Z,22.70
2019-05-20T09:28:31.318Z,22.83
2019-05-20T09:31:00.238Z,25.37
2019-05-20T09:33:29.303Z,22.20
2019-05-20T09:35:58.386Z,20.10
2019-05-20T09:38:27.252Z,24.27
2019-05-20T09:40:56.234Z,26.67
2019-05-20T09:43:26.080Z,25.70
2019-05-20T09:46:06.706Z,24.80
2019-05-20T09:48:25.703Z,23.43
2019-05-20T09:50:54.720Z,29.53
2019-05-20T09:53:24.132Z,26.00
2019-05-20T09:55:53.098Z,28.27
2019-05-20T09:58:21.978Z,27.03
2019-05-20T10:00:50.986Z,25.50
2019-05-20T10:03:19.981Z,24.93
2019-05-20T10:05:48.869Z,24.00
2019-05-20T10:08:34.517Z,23.30
2019-05-20T10:10:48.559Z,22.97
2019-05-20T10:13:17.545Z,24.43
2019-05-20T10:15:46.439Z,24.73
2019-05-20T10:18:15.377Z,22.70
2019-05-20T10:20:44.259Z,21.70
2019-05-20T10:23:15.759Z,22.47
2019-05-20T10:25:43.879Z,23.27
2019-05-20T10:28:12.873Z,21.10
2019-05-20T10:30:41.901Z,18.50
2019-05-20T10:33:11.105Z,18.37
2019-05-20T10:35:40.233Z,16.37
2019-05-20T10:38:09.270Z,16.47
2019-05-20T10:40:38.307Z,15.33
2019-05-20T10:43:07.186Z,16.40
2019-05-20T10:45:36.268Z,13.17
2019-05-20T10:48:08.768Z,16.43
2019-05-20T10:50:36.122Z,16.10
2019-05-20T10:53:05.229Z,15.27
2019-05-20T10:55:38.134Z,17.83
2019-05-20T10:58:06.755Z,18.57
2019-05-20T11:00:35.770Z,15.57
2019-05-20T11:03:04.826Z,17.50
2019-05-20T11:05:42.346Z,14.73
2019-05-20T11:08:39.675Z,15.13
2019-05-20T11:11:14.181Z,15.87
2019-05-20T11:13:40.977Z,18.83
2019-05-20T11:16:09.888Z,14.70
2019-05-20T11:18:38.739Z,17.90
2019-05-20T11:21:07.635Z,12.93
2019-05-20T11:23:36.598Z,14.33
2019-05-20T11:26:05.553Z,20.03
2019-05-20T11:28:34.570Z,20.23
2019-05-20T11:31:03.545Z,16.37
2019-05-20T11:33:32.557Z,14.87
2019-05-20T11:36:01.438Z,14.23
2019-05-20T11:38:30.723Z,13.93
2019-05-20T11:40:59.629Z,15.10
2019-05-20T11:43:28.581Z,13.57
2019-05-20T11:45:57.495Z,13.50
2019-05-20T11:48:26.345Z,14.63
2019-05-20T11:50:55.097Z,15.83
2019-05-20T11:53:23.988Z,22.87
2019-05-20T11:55:52.858Z,23.30
2019-05-20T11:58:21.948Z,26.13
2019-05-20T12:00:50.935Z,31.90
2019-05-20T12:03:19.871Z,35.93
2019-05-20T12:05:48.792Z,31.57
2019-05-20T12:08:17.661Z,19.43
2019-05-20T12:10:46.580Z,15.53
2019-05-20T12:13:16.497Z,15.70
2019-05-20T12:15:45.439Z,17.10
2019-05-20T12:18:14.314Z,17.20
2019-05-20T12:20:43.232Z,19.33
2019-05-20T12:23:12.221Z,20.40
2019-05-20T12:25:41.059Z,22.60
2019-05-20T12:28:10.192Z,25.10
2019-05-20T12:30:39.543Z,24.00
2019-05-20T12:33:18.516Z,24.83
2019-05-20T12:35:38.935Z,35.10
2019-05-20T12:38:07.895Z,27.13
2019-05-20T12:40:36.751Z,28.67
2019-05-20T12:43:05.713Z,30.27
2019-05-20T12:45:34.653Z,31.60
2019-05-20T12:48:03.604Z,39.50
2019-05-20T12:50:32.551Z,37.13
2019-05-20T12:53:01.458Z,37.45
2019-05-20T12:55:30.394Z,37.93
2019-05-20T12:57:59.358Z,40.47
2019-05-20T13:00:28.286Z,37.30
2019-05-20T13:02:57.169Z,49.37
2019-05-20T13:05:26.189Z,46.13
2019-05-20T13:07:55.268Z,41.80
2019-05-20T13:10:29.546Z,37.17
2019-05-20T13:12:55.047Z,45.77
2019-05-20T13:15:24.061Z,43.37
2019-05-20T13:17:53.451Z,44.77
2019-05-20T13:20:22.800Z,49.13
2019-05-20T13:22:51.965Z,48.60
2019-05-20T13:25:20.912Z,48.40
2019-05-20T13:27:49.787Z,54.97
2019-05-20T13:30:19.254Z,49.97
2019-05-20T13:32:48.193Z,45.93
2019-05-20T13:35:17.637Z,47.80
2019-05-20T13:37:46.671Z,49.23
2019-05-20T13:40:16.152Z,54.33
2019-05-20T13:42:45.010Z,49.97
2019-05-20T13:45:14.437Z,50.23
2019-05-20T13:47:43.207Z,50.77
2019-05-20T13:50:12.905Z,51.47
2019-05-20T13:52:41.839Z,50.47
2019-05-20T13:55:11.420Z,52.23
2019-05-20T13:57:40.432Z,54.60
2019-05-20T14:00:10.263Z,51.57
2019-05-20T14:02:39.389Z,44.13
2019-05-20T14:05:08.359Z,44.17
2019-05-20T14:07:37.172Z,53.33
2019-05-20T14:10:06.415Z,52.07
2019-05-20T14:12:35.403Z,52.10
2019-05-20T14:15:04.805Z,47.53
2019-05-20T14:17:33.814Z,53.83
2019-05-20T14:20:03.134Z,46.27
2019-05-20T14:22:32.206Z,52.17
2019-05-20T14:25:03.634Z,50.90
2019-05-20T14:27:32.629Z,39.53
2019-05-20T14:30:01.612Z,45.30
2019-05-20T14:32:30.677Z,46.23
2019-05-20T14:34:59.610Z,45.40
2019-05-20T14:37:28.667Z,53.03
2019-05-20T14:39:57.698Z,50.00
2019-05-20T14:42:26.631Z,47.00
2019-05-20T14:44:55.541Z,48.03
2019-05-20T14:47:26.164Z,42.20
2019-05-20T14:49:55.169Z,44.83
2019-05-20T14:52:24.293Z,45.30
2019-05-20T14:54:53.287Z,40.73
2019-05-20T14:57:22.209Z,44.70
2019-05-20T14:59:51.227Z,47.30
2019-05-20T15:02:20.119Z,54.10
2019-05-20T15:04:49.160Z,48.63
2019-05-20T15:07:29.151Z,48.03
2019-05-20T15:09:48.852Z,47.83
2019-05-20T15:12:17.769Z,46.53
2019-05-20T15:14:46.639Z,52.93
2019-05-20T15:17:15.646Z,49.10
2019-05-20T15:19:44.612Z,51.40
2019-05-20T15:22:13.931Z,47.40
2019-05-20T15:24:42.807Z,49.43
2019-05-20T15:27:11.801Z,50.87
2019-05-20T15:29:40.796Z,60.07
2019-05-20T15:32:09.680Z,53.43
2019-05-20T15:34:38.859Z,53.93
2019-05-20T15:37:07.874Z,58.10
2019-05-20T15:39:36.751Z,55.93
2019-05-20T15:42:05.786Z,59.67
2019-05-20T15:44:34.933Z,60.63
2019-05-20T15:47:03.793Z,55.77
2019-05-20T15:49:32.631Z,58.03
2019-05-20T15:52:01.549Z,61.75
2019-05-20T15:54:30.442Z,64.30
2019-05-20T15:56:59.493Z,68.80
2019-05-20T15:59:43.141Z,74.23
2019-05-20T16:01:59.041Z,65.87
2019-05-20T16:04:27.957Z,60.77
2019-05-20T16:07:00.174Z,66.43
2019-05-20T16:09:27.531Z,64.07
2019-05-20T16:11:57.459Z,68.87
2019-05-20T16:14:26.354Z,60.27
2019-05-20T16:16:55.289Z,62.73
2019-05-20T16:19:24.301Z,68.27
2019-05-20T16:21:53.302Z,69.47
2019-05-20T16:24:22.230Z,63.17
2019-05-20T16:26:51.227Z,66.83
2019-05-20T16:29:20.211Z,64.00
2019-05-20T16:31:49.115Z,62.57
2019-05-20T16:34:18.051Z,64.93
2019-05-20T16:36:47.080Z,60.37
2019-05-20T16:39:16.504Z,69.77
2019-05-20T16:41:45.574Z,64.67
2019-05-20T16:44:14.536Z,62.07
2019-05-20T16:46:43.529Z,64.27
2019-05-20T16:49:12.571Z,65.87
2019-05-20T16:51:41.513Z,60.83
2019-05-20T16:54:10.458Z,61.80
2019-05-20T16:56:39.434Z,62.33
2019-05-20T16:59:08.518Z,65.47
2019-05-20T17:01:45.930Z,55.97
2019-05-20T17:04:08.188Z,62.13
2019-05-20T17:06:37.212Z,65.90
2019-05-20T17:09:06.457Z,68.40
2019-05-20T17:11:35.539Z,62.77
2019-05-20T17:14:04.579Z,61.10
2019-05-20T17:16:33.646Z,64.60
2019-05-20T17:19:02.690Z,61.70
2019-05-20T17:21:31.581Z,71.40
2019-05-20T17:24:00.524Z,65.37
2019-05-20T17:26:29.493Z,62.07
2019-05-20T17:28:58.464Z,57.97
2019-05-20T17:31:30.679Z,58.80
2019-05-20T17:33:58.223Z,59.87
2019-05-20T17:36:27.363Z,56.10
2019-05-20T17:38:56.186Z,59.80
2019-05-20T17:41:25.330Z,57.20
2019-05-20T17:43:54.236Z,59.57
2019-05-20T17:46:23.354Z,55.73
2019-05-20T17:48:52.400Z,56.67
2019-05-20T17:51:21.400Z,57.43
2019-05-20T17:53:50.459Z,55.07
2019-05-20T17:56:19.673Z,60.83
2019-05-20T17:58:48.651Z,61.23
2019-05-20T18:01:17.523Z,55.87
2019-05-20T18:03:46.575Z,57.53
2019-05-20T18:06:15.517Z,55.00
2019-05-20T18:08:47.420Z,50.65
2019-05-20T18:11:19.259Z,51.97
2019-05-20T18:13:47.117Z,53.07
2019-05-20T18:16:16.079Z,53.53
2019-05-20T18:18:44.979Z,55.87
2019-05-20T18:21:13.907Z,57.30
2019-05-20T18:23:42.806Z,55.77
2019-05-20T18:26:11.801Z,55.00
2019-05-20T18:28:41.095Z,46.30
2019-05-20T18:31:10.079Z,49.90
2019-05-20T18:33:39.098Z,49.77
2019-05-20T18:36:08.088Z,50.43
2019-05-20T18:38:36.978Z,48.50
2019-05-20T18:41:05.945Z,51.00
2019-05-20T18:43:35.004Z,53.10
2019-05-20T18:46:03.904Z,58.43
2019-05-20T18:48:33.102Z,57.67
2019-05-20T18:51:02.231Z,43.33
2019-05-20T18:53:31.254Z,47.33
2019-05-20T18:56:00.313Z,50.73
2019-05-20T18:58:29.291Z,50.83
2019-05-20T19:00:58.213Z,48.87
2019-05-20T19:03:28.238Z,50.30
2019-05-20T19:05:57.820Z,46.70
2019-05-20T19:08:26.818Z,45.27
2019-05-20T19:10:59.187Z,48.60
2019-05-20T19:13:28.442Z,45.13
2019-05-20T19:15:57.387Z,50.23
2019-05-20T19:18:26.337Z,47.30
2019-05-20T19:20:55.255Z,45.00
2019-05-20T19:23:24.234Z,51.47
2019-05-20T19:25:53.228Z,43.30
2019-05-20T19:28:22.456Z,45.73
2019-05-20T19:30:51.519Z,50.33
2019-05-20T19:33:21.332Z,49.07
2019-05-20T19:35:50.279Z,43.47
2019-05-20T19:38:19.355Z,53.73
2019-05-20T19:40:48.395Z,45.93
2019-05-20T19:43:17.355Z,49.37
2019-05-20T19:45:46.304Z,45.77
2019-05-20T19:48:15.315Z,50.53
2019-05-20T19:50:44.349Z,51.10
2019-05-20T19:53:13.447Z,46.93
2019-05-20T19:55:42.334Z,50.03
2019-05-20T19:58:11.408Z,44.77
2019-05-20T20:00:40.263Z,43.93
2019-05-20T20:03:09.224Z,52.93
2019-05-20T20:05:38.179Z,46.37
2019-05-20T20:08:07.194Z,51.37
2019-05-20T20:10:36.185Z,52.80
2019-05-20T20:13:05.332Z,51.00
2019-05-20T20:15:34.324Z,50.83
2019-05-20T20:18:03.521Z,51.57
2019-05-20T20:20:32.392Z,55.10
2019-05-20T20:23:01.393Z,54.27
2019-05-20T20:25:30.449Z,55.80
2019-05-20T20:27:59.400Z,55.83
2019-05-20T20:30:28.569Z,60.20
2019-05-20T20:32:58.018Z,57.70
2019-05-20T20:35:37.770Z,65.20
2019-05-20T20:37:57.720Z,55.60
2019-05-20T20:40:26.708Z,57.97
2019-05-20T20:42:55.638Z,66.53
2019-05-20T20:45:24.622Z,62.43
2019-05-20T20:47:56.300Z,67.53
2019-05-20T20:50:27.109Z,64.53
2019-05-20T20:52:56.451Z,64.00
2019-05-20T20:55:26.360Z,63.83
2019-05-20T20:57:55.528Z,65.57
2019-05-20T21:00:24.769Z,68.23
2019-05-20T21:02:54.417Z,61.77
2019-05-20T21:05:24.228Z,64.53
2019-05-20T21:07:53.247Z,69.13
2019-05-20T21:10:27.133Z,65.67
2019-05-20T21:12:56.774Z,69.83
2019-05-20T21:15:25.798Z,64.33
2019-05-20T21:17:54.659Z,69.97
2019-05-20T21:20:23.617Z,65.67
2019-05-20T21:22:52.563Z,65.63
2019-05-20T21:25:21.532Z,67.90
2019-05-20T21:27:50.412Z,68.63
2019-05-20T21:30:19.416Z,66.73
2019-05-20T21:32:48.364Z,72.77
2019-05-20T21:35:17.403Z,63.27
2019-05-20T21:37:46.351Z,62.93
2019-05-20T21:40:15.411Z,60.03
2019-05-20T21:42:44.536Z,70.53
2019-05-20T21:45:14.043Z,67.10
2019-05-20T21:47:44.802Z,69.93
2019-05-20T21:50:13.851Z,74.90
2019-05-20T21:52:43.062Z,67.23
2019-05-20T21:55:12.328Z,70.73
2019-05-20T21:57:41.367Z,66.17
2019-05-20T22:00:12.924Z,71.90
2019-05-20T22:02:41.940Z,70.30
2019-05-20T22:05:11.140Z,74.23
2019-05-20T22:07:39.963Z,73.17
2019-05-20T22:10:09.760Z,68.87
2019-05-20T22:12:38.825Z,68.05
2019-05-20T22:15:07.885Z,72.97
2019-05-20T22:17:36.830Z,70.33
2019-05-20T22:20:06.076Z,70.23
2019-05-20T22:22:49.134Z,67.67
2019-05-20T22:25:18.041Z,68.57
2019-05-20T22:27:49.883Z,68.87
2019-05-20T22:30:18.952Z,72.60
2019-05-20T22:32:47.904Z,66.17
2019-05-20T22:35:16.803Z,70.13
2019-05-20T22:37:45.597Z,74.47
2019-05-20T22:40:14.635Z,66.53
2019-05-20T22:42:43.519Z,67.30
2019-05-20T22:45:12.615Z,69.93
2019-05-20T22:47:41.542Z,71.67
2019-05-20T22:50:10.521Z,69.10
2019-05-20T22:52:39.341Z,76.40
2019-05-20T22:55:08.343Z,76.07
2019-05-20T22:57:37.328Z,71.17
2019-05-20T23:00:07.427Z,67.43
2019-05-20T23:02:36.356Z,72.83
2019-05-20T23:05:05.844Z,58.33
2019-05-20T23:07:34.848Z,72.40
2019-05-20T23:10:04.011Z,73.00
2019-05-20T23:12:32.922Z,75.20
2019-05-20T23:15:02.023Z,72.70
2019-05-20T23:17:30.989Z,71.63
2019-05-20T23:19:59.932Z,70.87
2019-05-20T23:22:29.000Z,70.80
2019-05-20T23:24:57.904Z,74.50
2019-05-20T23:27:26.903Z,66.40
2019-05-20T23:29:55.885Z,66.60
2019-05-20T23:32:24.794Z,65.67
2019-05-20T23:34:53.780Z,61.93
2019-05-20T23:37:22.781Z,63.90
2019-05-20T23:39:51.767Z,60.63
2019-05-20T23:42:20.784Z,61.60
2019-05-20T23:44:49.827Z,65.57
2019-05-20T23:47:18.939Z,48.50
2019-05-20T23:49:47.846Z,61.83
2019-05-20T23:52:16.722Z,55.10
2019-05-20T23:54:45.712Z,50.87
2019-05-20T23:57:14.703Z,57.60
2019-05-20T23:59:45.203Z,60.50
